sensor_id;sensor_type;location;lat;lon;timestamp;temperature;humidity
8424;DHT22;4249;49.072;9.770;2022-08-25T00:02:14;18.60;1.00
8424;DHT22;4249;49.072;9.770;2022-08-25T00:05:01;18.80;1.00
8424;DHT22;4249;49.072;9.770;2022-08-25T00:07:49;18.90;1.00
8424;DHT22;4249;49.072;9.770;2022-08-25T00:10:38;19.00;99.90
8424;DHT22;4249;49.072;9.770;2022-08-25T00:13:26;19.10;99.90
8424;DHT22;4249;49.072;9.770;2022-08-25T00:16:15;19.20;99.90
8424;DHT22;4249;49.072;9.770;2022-08-25T00:19:08;19.30;1.00
8424;DHT22;4249;49.072;9.770;2022-08-25T00:21:56;19.20;1.00
8424;DHT22;4249;49.072;9.770;2022-08-25T00:24:43;19.10;1.00
8424;DHT22;4249;49.072;9.770;2022-08-25T00:27:32;18.80;81.80
8424;DHT22;4249;49.072;9.770;2022-08-25T00:30:19;18.50;99.90
8424;DHT22;4249;49.072;9.770;2022-08-25T00:33:06;18.20;1.00
8424;DHT22;4249;49.072;9.770;2022-08-25T00:35:54;17.90;1.00
8424;DHT22;4249;49.072;9.770;2022-08-25T00:38:42;17.70;1.00
8424;DHT22;4249;49.072;9.770;2022-08-25T00:41:30;17.50;1.00
8424;DHT22;4249;49.072;9.770;2022-08-25T00:44:20;17.40;1.00
8424;DHT22;4249;49.072;9.770;2022-08-25T00:47:07;17.50;1.00
8424;DHT22;4249;49.072;9.770;2022-08-25T00:49:57;17.70;1.00
8424;DHT22;4249;49.072;9.770;2022-08-25T00:52:48;17.70;1.00
8424;DHT22;4249;49.072;9.770;2022-08-25T00:55:37;17.70;1.00
8424;DHT22;4249;49.072;9.770;2022-08-25T00:58:28;17.70;1.00
8424;DHT22;4249;49.072;9.770;2022-08-25T01:01:19;17.70;1.00
8424;DHT22;4249;49.072;9.770;2022-08-25T01:04:07;17.70;1.00
8424;DHT22;4249;49.072;9.770;2022-08-25T01:06:55;17.70;1.00
8424;DHT22;4249;49.072;9.770;2022-08-25T01:09:45;17.80;1.00
8424;DHT22;4249;49.072;9.770;2022-08-25T01:12:34;17.70;1.00
8424;DHT22;4249;49.072;9.770;2022-08-25T01:15:22;17.50;1.00
8424;DHT22;4249;49.072;9.770;2022-08-25T01:18:11;17.50;1.00
8424;DHT22;4249;49.072;9.770;2022-08-25T01:20:59;17.50;1.00
8424;DHT22;4249;49.072;9.770;2022-08-25T01:23:47;17.40;1.00
8424;DHT22;4249;49.072;9.770;2022-08-25T01:26:35;17.30;1.00
8424;DHT22;4249;49.072;9.770;2022-08-25T01:29:23;17.20;1.00
8424;DHT22;4249;49.072;9.770;2022-08-25T01:32:12;17.00;1.00
8424;DHT22;4249;49.072;9.770;2022-08-25T01:34:59;16.80;1.00
8424;DHT22;4249;49.072;9.770;2022-08-25T01:37:48;16.70;1.00
8424;DHT22;4249;49.072;9.770;2022-08-25T01:40:37;16.60;1.00
8424;DHT22;4249;49.072;9.770;2022-08-25T01:43:30;16.50;1.00
8424;DHT22;4249;49.072;9.770;2022-08-25T01:46:21;16.40;1.00
8424;DHT22;4249;49.072;9.770;2022-08-25T01:49:09;16.40;1.00
8424;DHT22;4249;49.072;9.770;2022-08-25T01:52:00;16.30;1.00
8424;DHT22;4249;49.072;9.770;2022-08-25T01:54:50;16.20;1.00
8424;DHT22;4249;49.072;9.770;2022-08-25T01:57:38;16.20;1.00
8424;DHT22;4249;49.072;9.770;2022-08-25T02:00:25;16.20;1.00
8424;DHT22;4249;49.072;9.770;2022-08-25T02:03:21;16.10;1.00
8424;DHT22;4249;49.072;9.770;2022-08-25T02:06:11;16.00;1.00
8424;DHT22;4249;49.072;9.770;2022-08-25T02:09:05;16.00;1.00
8424;DHT22;4249;49.072;9.770;2022-08-25T02:11:54;16.00;1.00
8424;DHT22;4249;49.072;9.770;2022-08-25T02:14:42;16.00;1.00
8424;DHT22;4249;49.072;9.770;2022-08-25T02:17:29;15.90;1.00
8424;DHT22;4249;49.072;9.770;2022-08-25T02:20:16;15.90;1.00
8424;DHT22;4249;49.072;9.770;2022-08-25T02:23:04;15.90;1.00
8424;DHT22;4249;49.072;9.770;2022-08-25T02:25:52;15.80;1.00
8424;DHT22;4249;49.072;9.770;2022-08-25T02:28:41;15.70;1.00
8424;DHT22;4249;49.072;9.770;2022-08-25T02:31:28;15.70;1.00
8424;DHT22;4249;49.072;9.770;2022-08-25T02:34:16;15.70;1.00
8424;DHT22;4249;49.072;9.770;2022-08-25T02:37:03;15.60;1.00
8424;DHT22;4249;49.072;9.770;2022-08-25T02:39:50;15.60;1.00
8424;DHT22;4249;49.072;9.770;2022-08-25T02:42:37;15.60;1.00
8424;DHT22;4249;49.072;9.770;2022-08-25T02:45:26;15.60;1.00
8424;DHT22;4249;49.072;9.770;2022-08-25T02:48:13;15.50;1.00
8424;DHT22;4249;49.072;9.770;2022-08-25T02:51:01;15.50;1.00
8424;DHT22;4249;49.072;9.770;2022-08-25T02:53:48;15.40;1.00
8424;DHT22;4249;49.072;9.770;2022-08-25T02:56:35;15.40;1.00
8424;DHT22;4249;49.072;9.770;2022-08-25T02:59:22;15.40;1.00
8424;DHT22;4249;49.072;9.770;2022-08-25T03:02:11;15.30;1.00
8424;DHT22;4249;49.072;9.770;2022-08-25T03:04:58;15.30;1.00
8424;DHT22;4249;49.072;9.770;2022-08-25T03:07:45;15.40;1.00
8424;DHT22;4249;49.072;9.770;2022-08-25T03:10:33;15.30;1.00
8424;DHT22;4249;49.072;9.770;2022-08-25T03:13:21;15.30;1.00
8424;DHT22;4249;49.072;9.770;2022-08-25T03:16:08;15.30;1.00
8424;DHT22;4249;49.072;9.770;2022-08-25T03:18:57;15.20;1.00
8424;DHT22;4249;49.072;9.770;2022-08-25T03:21:45;15.20;1.00
8424;DHT22;4249;49.072;9.770;2022-08-25T03:24:32;15.10;1.00
8424;DHT22;4249;49.072;9.770;2022-08-25T03:27:20;15.10;1.00
8424;DHT22;4249;49.072;9.770;2022-08-25T03:30:07;15.10;1.00
8424;DHT22;4249;49.072;9.770;2022-08-25T03:32:55;15.20;1.00
8424;DHT22;4249;49.072;9.770;2022-08-25T03:35:44;15.30;1.00
8424;DHT22;4249;49.072;9.770;2022-08-25T03:38:31;15.20;1.00
8424;DHT22;4249;49.072;9.770;2022-08-25T03:41:21;15.10;1.00
8424;DHT22;4249;49.072;9.770;2022-08-25T03:44:08;15.10;1.00
8424;DHT22;4249;49.072;9.770;2022-08-25T03:46:56;15.00;1.00
8424;DHT22;4249;49.072;9.770;2022-08-25T03:49:43;15.10;1.00
8424;DHT22;4249;49.072;9.770;2022-08-25T03:52:31;15.00;1.00
8424;DHT22;4249;49.072;9.770;2022-08-25T03:55:19;15.00;1.00
8424;DHT22;4249;49.072;9.770;2022-08-25T03:58:07;14.90;1.00
8424;DHT22;4249;49.072;9.770;2022-08-25T04:00:55;14.90;1.00
8424;DHT22;4249;49.072;9.770;2022-08-25T04:03:45;14.90;1.00
8424;DHT22;4249;49.072;9.770;2022-08-25T04:06:32;15.00;1.00
8424;DHT22;4249;49.072;9.770;2022-08-25T04:09:21;15.00;1.00
8424;DHT22;4249;49.072;9.770;2022-08-25T04:12:08;15.00;1.00
8424;DHT22;4249;49.072;9.770;2022-08-25T04:14:55;14.90;1.00
8424;DHT22;4249;49.072;9.770;2022-08-25T04:17:43;14.90;1.00
8424;DHT22;4249;49.072;9.770;2022-08-25T04:20:30;14.90;1.00
8424;DHT22;4249;49.072;9.770;2022-08-25T04:23:17;14.80;1.00
8424;DHT22;4249;49.072;9.770;2022-08-25T04:26:09;14.70;1.00
8424;DHT22;4249;49.072;9.770;2022-08-25T04:28:58;14.70;1.00
8424;DHT22;4249;49.072;9.770;2022-08-25T04:31:46;14.80;1.00
8424;DHT22;4249;49.072;9.770;2022-08-25T04:34:35;14.80;1.00
8424;DHT22;4249;49.072;9.770;2022-08-25T04:37:22;14.80;1.00
8424;DHT22;4249;49.072;9.770;2022-08-25T04:40:10;14.70;1.00
8424;DHT22;4249;49.072;9.770;2022-08-25T04:42:59;14.60;1.00
8424;DHT22;4249;49.072;9.770;2022-08-25T04:45:46;14.60;1.00
8424;DHT22;4249;49.072;9.770;2022-08-25T04:48:33;14.60;1.00
8424;DHT22;4249;49.072;9.770;2022-08-25T04:51:22;14.70;1.00
8424;DHT22;4249;49.072;9.770;2022-08-25T04:54:13;14.70;1.00
8424;DHT22;4249;49.072;9.770;2022-08-25T04:57:01;14.80;1.00
8424;DHT22;4249;49.072;9.770;2022-08-25T04:59:50;14.90;1.00
8424;DHT22;4249;49.072;9.770;2022-08-25T05:02:17;14.90;1.00
8424;DHT22;4249;49.072;9.770;2022-08-25T05:04:45;14.90;1.00
8424;DHT22;4249;49.072;9.770;2022-08-25T05:07:11;14.90;1.00
8424;DHT22;4249;49.072;9.770;2022-08-25T05:09:39;14.90;1.00
8424;DHT22;4249;49.072;9.770;2022-08-25T05:12:06;14.80;1.00
8424;DHT22;4249;49.072;9.770;2022-08-25T05:14:33;14.90;1.00
8424;DHT22;4249;49.072;9.770;2022-08-25T05:17:01;14.90;1.00
8424;DHT22;4249;49.072;9.770;2022-08-25T05:19:28;15.00;1.00
8424;DHT22;4249;49.072;9.770;2022-08-25T05:21:55;15.00;1.00
8424;DHT22;4249;49.072;9.770;2022-08-25T05:24:22;15.00;1.00
8424;DHT22;4249;49.072;9.770;2022-08-25T05:26:49;15.10;1.00
8424;DHT22;4249;49.072;9.770;2022-08-25T05:29:16;15.20;1.00
8424;DHT22;4249;49.072;9.770;2022-08-25T05:31:44;15.30;1.00
8424;DHT22;4249;49.072;9.770;2022-08-25T05:34:13;15.30;1.00
8424;DHT22;4249;49.072;9.770;2022-08-25T05:36:40;15.30;1.00
8424;DHT22;4249;49.072;9.770;2022-08-25T05:39:08;15.30;1.00
8424;DHT22;4249;49.072;9.770;2022-08-25T05:41:35;15.30;1.00
8424;DHT22;4249;49.072;9.770;2022-08-25T05:44:02;15.40;1.00
8424;DHT22;4249;49.072;9.770;2022-08-25T05:46:29;15.40;1.00
8424;DHT22;4249;49.072;9.770;2022-08-25T05:48:56;15.50;1.00
8424;DHT22;4249;49.072;9.770;2022-08-25T05:51:25;15.60;1.00
8424;DHT22;4249;49.072;9.770;2022-08-25T05:53:52;15.70;1.00
8424;DHT22;4249;49.072;9.770;2022-08-25T05:56:19;15.70;1.00
8424;DHT22;4249;49.072;9.770;2022-08-25T05:58:46;15.80;1.00
8424;DHT22;4249;49.072;9.770;2022-08-25T06:01:22;15.80;1.00
8424;DHT22;4249;49.072;9.770;2022-08-25T06:04:07;15.80;1.00
8424;DHT22;4249;49.072;9.770;2022-08-25T06:06:35;15.80;1.00
8424;DHT22;4249;49.072;9.770;2022-08-25T06:09:02;15.80;1.00
8424;DHT22;4249;49.072;9.770;2022-08-25T06:11:34;15.90;1.00
8424;DHT22;4249;49.072;9.770;2022-08-25T06:14:01;16.00;1.00
8424;DHT22;4249;49.072;9.770;2022-08-25T06:16:28;16.10;1.00
8424;DHT22;4249;49.072;9.770;2022-08-25T06:18:55;16.40;1.00
8424;DHT22;4249;49.072;9.770;2022-08-25T06:21:22;16.80;1.00
8424;DHT22;4249;49.072;9.770;2022-08-25T06:23:51;17.50;1.00
8424;DHT22;4249;49.072;9.770;2022-08-25T06:26:18;18.20;1.00
8424;DHT22;4249;49.072;9.770;2022-08-25T06:28:45;19.30;1.00
8424;DHT22;4249;49.072;9.770;2022-08-25T06:31:12;20.80;99.90
8424;DHT22;4249;49.072;9.770;2022-08-25T06:33:39;23.10;79.90
8424;DHT22;4249;49.072;9.770;2022-08-25T06:36:07;25.10;99.90
8424;DHT22;4249;49.072;9.770;2022-08-25T06:38:34;27.00;99.90
8424;DHT22;4249;49.072;9.770;2022-08-25T06:41:04;28.60;99.90
8424;DHT22;4249;49.072;9.770;2022-08-25T06:43:32;29.80;99.90
8424;DHT22;4249;49.072;9.770;2022-08-25T06:46:08;30.80;99.90
8424;DHT22;4249;49.072;9.770;2022-08-25T06:48:35;30.90;99.10
8424;DHT22;4249;49.072;9.770;2022-08-25T06:51:04;31.70;96.90
8424;DHT22;4249;49.072;9.770;2022-08-25T06:53:31;31.70;95.60
8424;DHT22;4249;49.072;9.770;2022-08-25T06:55:58;31.20;95.30
8424;DHT22;4249;49.072;9.770;2022-08-25T06:58:28;31.60;94.60
8424;DHT22;4249;49.072;9.770;2022-08-25T07:00:55;31.20;94.20
8424;DHT22;4249;49.072;9.770;2022-08-25T07:03:22;31.70;93.20
8424;DHT22;4249;49.072;9.770;2022-08-25T07:05:52;32.60;92.10
8424;DHT22;4249;49.072;9.770;2022-08-25T07:08:22;33.20;90.60
8424;DHT22;4249;49.072;9.770;2022-08-25T07:10:49;33.60;88.70
8424;DHT22;4249;49.072;9.770;2022-08-25T07:13:16;34.10;86.40
8424;DHT22;4249;49.072;9.770;2022-08-25T07:15:44;34.60;83.30
8424;DHT22;4249;49.072;9.770;2022-08-25T07:18:11;34.50;82.80
8424;DHT22;4249;49.072;9.770;2022-08-25T07:20:39;34.00;82.70
8424;DHT22;4249;49.072;9.770;2022-08-25T07:23:26;34.60;81.00
8424;DHT22;4249;49.072;9.770;2022-08-25T07:26:15;34.90;78.00
8424;DHT22;4249;49.072;9.770;2022-08-25T07:29:11;34.90;77.50
8424;DHT22;4249;49.072;9.770;2022-08-25T07:32:00;35.20;75.20
8424;DHT22;4249;49.072;9.770;2022-08-25T07:34:47;33.90;77.40
8424;DHT22;4249;49.072;9.770;2022-08-25T07:37:54;34.40;76.40
8424;DHT22;4249;49.072;9.770;2022-08-25T07:40:42;35.00;74.50
8424;DHT22;4249;49.072;9.770;2022-08-25T07:43:30;35.50;71.50
8424;DHT22;4249;49.072;9.770;2022-08-25T07:46:18;36.20;41.00
8424;DHT22;4249;49.072;9.770;2022-08-25T07:49:06;35.90;1.00
8424;DHT22;4249;49.072;9.770;2022-08-25T07:51:54;36.00;1.00
8424;DHT22;4249;49.072;9.770;2022-08-25T07:54:41;36.30;1.00
8424;DHT22;4249;49.072;9.770;2022-08-25T07:57:29;36.50;1.00
8424;DHT22;4249;49.072;9.770;2022-08-25T08:00:16;35.50;1.00
8424;DHT22;4249;49.072;9.770;2022-08-25T08:03:05;35.20;1.00
8424;DHT22;4249;49.072;9.770;2022-08-25T08:05:53;34.20;1.00
8424;DHT22;4249;49.072;9.770;2022-08-25T08:08:43;31.80;1.00
8424;DHT22;4249;49.072;9.770;2022-08-25T08:11:32;29.90;1.00
8424;DHT22;4249;49.072;9.770;2022-08-25T08:14:21;28.30;1.00
8424;DHT22;4249;49.072;9.770;2022-08-25T08:17:09;27.50;1.00
8424;DHT22;4249;49.072;9.770;2022-08-25T08:19:57;26.80;1.00
8424;DHT22;4249;49.072;9.770;2022-08-25T08:22:45;26.50;1.00
8424;DHT22;4249;49.072;9.770;2022-08-25T08:25:33;26.30;1.00
8424;DHT22;4249;49.072;9.770;2022-08-25T08:28:21;26.00;1.00
8424;DHT22;4249;49.072;9.770;2022-08-25T08:31:12;26.10;1.00
8424;DHT22;4249;49.072;9.770;2022-08-25T08:34:00;26.00;1.00
8424;DHT22;4249;49.072;9.770;2022-08-25T08:36:48;25.70;99.90
8424;DHT22;4249;49.072;9.770;2022-08-25T08:39:37;25.50;58.80
8424;DHT22;4249;49.072;9.770;2022-08-25T08:42:44;25.50;97.60
8424;DHT22;4249;49.072;9.770;2022-08-25T08:45:40;25.60;98.50
8424;DHT22;4249;49.072;9.770;2022-08-25T08:48:46;25.60;98.70
8424;DHT22;4249;49.072;9.770;2022-08-25T08:51:44;25.90;99.80
8424;DHT22;4249;49.072;9.770;2022-08-25T08:54:38;25.70;98.90
8424;DHT22;4249;49.072;9.770;2022-08-25T08:57:28;25.90;98.40
8424;DHT22;4249;49.072;9.770;2022-08-25T09:00:17;26.20;99.00
8424;DHT22;4249;49.072;9.770;2022-08-25T09:03:07;26.20;97.90
8424;DHT22;4249;49.072;9.770;2022-08-25T09:05:57;26.00;96.90
8424;DHT22;4249;49.072;9.770;2022-08-25T09:08:46;25.90;98.10
8424;DHT22;4249;49.072;9.770;2022-08-25T09:11:49;25.80;97.20
8424;DHT22;4249;49.072;9.770;2022-08-25T09:14:48;25.80;96.30
8424;DHT22;4249;49.072;9.770;2022-08-25T09:18:04;25.90;96.00
8424;DHT22;4249;49.072;9.770;2022-08-25T09:21:03;26.20;94.90
8424;DHT22;4249;49.072;9.770;2022-08-25T09:24:06;26.50;93.30
8424;DHT22;4249;49.072;9.770;2022-08-25T09:27:08;26.50;90.70
8424;DHT22;4249;49.072;9.770;2022-08-25T09:30:03;26.80;1.00
8424;DHT22;4249;49.072;9.770;2022-08-25T09:32:53;26.90;1.00
8424;DHT22;4249;49.072;9.770;2022-08-25T09:35:50;27.10;1.00
8424;DHT22;4249;49.072;9.770;2022-08-25T09:38:38;27.30;1.00
8424;DHT22;4249;49.072;9.770;2022-08-25T09:41:45;27.50;1.00
8424;DHT22;4249;49.072;9.770;2022-08-25T09:44:39;27.80;1.00
8424;DHT22;4249;49.072;9.770;2022-08-25T09:47:28;28.10;1.00
8424;DHT22;4249;49.072;9.770;2022-08-25T09:50:18;28.00;1.00
8424;DHT22;4249;49.072;9.770;2022-08-25T09:53:13;27.90;1.00
8424;DHT22;4249;49.072;9.770;2022-08-25T09:56:04;27.80;1.00
8424;DHT22;4249;49.072;9.770;2022-08-25T09:58:53;27.90;1.00
8424;DHT22;4249;49.072;9.770;2022-08-25T10:01:48;27.90;1.00
8424;DHT22;4249;49.072;9.770;2022-08-25T10:04:38;27.90;1.00
8424;DHT22;4249;49.072;9.770;2022-08-25T10:07:28;28.10;1.00
8424;DHT22;4249;49.072;9.770;2022-08-25T10:10:20;28.10;1.00
8424;DHT22;4249;49.072;9.770;2022-08-25T10:13:12;28.20;1.00
8424;DHT22;4249;49.072;9.770;2022-08-25T10:16:06;28.10;1.00
8424;DHT22;4249;49.072;9.770;2022-08-25T10:19:05;28.30;1.00
8424;DHT22;4249;49.072;9.770;2022-08-25T10:22:08;28.10;1.00
8424;DHT22;4249;49.072;9.770;2022-08-25T10:24:55;28.10;1.00
8424;DHT22;4249;49.072;9.770;2022-08-25T10:27:50;28.00;1.00
8424;DHT22;4249;49.072;9.770;2022-08-25T10:30:54;28.00;1.00
8424;DHT22;4249;49.072;9.770;2022-08-25T10:33:54;28.10;1.00
8424;DHT22;4249;49.072;9.770;2022-08-25T10:36:53;28.40;1.00
8424;DHT22;4249;49.072;9.770;2022-08-25T10:39:44;28.40;1.00
8424;DHT22;4249;49.072;9.770;2022-08-25T10:42:35;28.30;1.00
8424;DHT22;4249;49.072;9.770;2022-08-25T10:45:27;28.30;1.00
8424;DHT22;4249;49.072;9.770;2022-08-25T10:48:45;28.50;1.00
8424;DHT22;4249;49.072;9.770;2022-08-25T10:51:51;28.40;1.00
8424;DHT22;4249;49.072;9.770;2022-08-25T10:54:45;28.80;1.00
8424;DHT22;4249;49.072;9.770;2022-08-25T10:57:36;29.20;1.00
8424;DHT22;4249;49.072;9.770;2022-08-25T11:00:32;29.10;1.00
8424;DHT22;4249;49.072;9.770;2022-08-25T11:03:34;29.30;1.00
8424;DHT22;4249;49.072;9.770;2022-08-25T11:06:27;29.30;1.00
8424;DHT22;4249;49.072;9.770;2022-08-25T11:09:22;29.20;1.00
8424;DHT22;4249;49.072;9.770;2022-08-25T11:12:12;29.40;1.00
8424;DHT22;4249;49.072;9.770;2022-08-25T11:15:04;29.40;1.00
8424;DHT22;4249;49.072;9.770;2022-08-25T11:17:55;29.20;1.00
8424;DHT22;4249;49.072;9.770;2022-08-25T11:20:47;29.20;1.00
8424;DHT22;4249;49.072;9.770;2022-08-25T11:23:38;28.60;1.00
8424;DHT22;4249;49.072;9.770;2022-08-25T11:26:32;28.40;1.00
8424;DHT22;4249;49.072;9.770;2022-08-25T11:29:22;28.50;1.00
8424;DHT22;4249;49.072;9.770;2022-08-25T11:32:11;28.30;1.00
8424;DHT22;4249;49.072;9.770;2022-08-25T11:35:00;28.40;1.00
8424;DHT22;4249;49.072;9.770;2022-08-25T11:37:59;28.70;1.00
8424;DHT22;4249;49.072;9.770;2022-08-25T11:40:56;28.90;1.00
8424;DHT22;4249;49.072;9.770;2022-08-25T11:47:27;28.60;1.00
8424;DHT22;4249;49.072;9.770;2022-08-25T11:50:28;28.70;1.00
8424;DHT22;4249;49.072;9.770;2022-08-25T11:52:58;28.70;1.00
8424;DHT22;4249;49.072;9.770;2022-08-25T11:55:44;28.50;1.00
8424;DHT22;4249;49.072;9.770;2022-08-25T11:58:26;28.50;1.00
8424;DHT22;4249;49.072;9.770;2022-08-25T12:00:59;28.10;1.00
8424;DHT22;4249;49.072;9.770;2022-08-25T12:03:50;28.10;1.00
8424;DHT22;4249;49.072;9.770;2022-08-25T12:06:24;28.00;1.00
8424;DHT22;4249;49.072;9.770;2022-08-25T12:11:58;27.60;1.00
8424;DHT22;4249;49.072;9.770;2022-08-25T12:14:46;27.80;1.00
8424;DHT22;4249;49.072;9.770;2022-08-25T12:17:38;28.20;1.00
8424;DHT22;4249;49.072;9.770;2022-08-25T12:24:07;28.50;1.00
8424;DHT22;4249;49.072;9.770;2022-08-25T12:26:57;28.60;1.00
8424;DHT22;4249;49.072;9.770;2022-08-25T12:29:49;28.80;1.00
8424;DHT22;4249;49.072;9.770;2022-08-25T12:32:51;29.00;1.00
8424;DHT22;4249;49.072;9.770;2022-08-25T12:35:53;28.90;1.00
8424;DHT22;4249;49.072;9.770;2022-08-25T12:38:43;29.00;1.00
8424;DHT22;4249;49.072;9.770;2022-08-25T12:41:31;28.80;1.00
8424;DHT22;4249;49.072;9.770;2022-08-25T12:44:33;28.30;1.00
8424;DHT22;4249;49.072;9.770;2022-08-25T12:47:29;28.20;1.00
8424;DHT22;4249;49.072;9.770;2022-08-25T12:50:38;27.90;1.00
8424;DHT22;4249;49.072;9.770;2022-08-25T12:53:31;28.10;1.00
8424;DHT22;4249;49.072;9.770;2022-08-25T12:56:26;28.20;1.00
8424;DHT22;4249;49.072;9.770;2022-08-25T12:59:19;28.10;1.00
8424;DHT22;4249;49.072;9.770;2022-08-25T13:02:40;27.90;1.00
8424;DHT22;4249;49.072;9.770;2022-08-25T13:05:54;27.60;1.00
8424;DHT22;4249;49.072;9.770;2022-08-25T13:09:04;27.40;1.00
8424;DHT22;4249;49.072;9.770;2022-08-25T13:12:04;27.40;1.00
8424;DHT22;4249;49.072;9.770;2022-08-25T13:14:56;27.30;1.00
8424;DHT22;4249;49.072;9.770;2022-08-25T13:17:45;27.40;1.00
8424;DHT22;4249;49.072;9.770;2022-08-25T13:20:32;27.50;1.00
8424;DHT22;4249;49.072;9.770;2022-08-25T13:23:25;27.70;1.00
8424;DHT22;4249;49.072;9.770;2022-08-25T13:26:15;27.50;1.00
8424;DHT22;4249;49.072;9.770;2022-08-25T13:29:12;27.40;1.00
8424;DHT22;4249;49.072;9.770;2022-08-25T13:32:02;27.40;1.00
8424;DHT22;4249;49.072;9.770;2022-08-25T13:34:50;27.40;1.00
8424;DHT22;4249;49.072;9.770;2022-08-25T13:37:39;27.70;1.00
8424;DHT22;4249;49.072;9.770;2022-08-25T13:40:29;27.90;1.00
8424;DHT22;4249;49.072;9.770;2022-08-25T13:43:18;28.10;1.00
8424;DHT22;4249;49.072;9.770;2022-08-25T13:46:05;28.30;1.00
8424;DHT22;4249;49.072;9.770;2022-08-25T13:49:02;28.60;1.00
8424;DHT22;4249;49.072;9.770;2022-08-25T13:51:52;28.80;1.00
8424;DHT22;4249;49.072;9.770;2022-08-25T13:54:41;29.10;1.00
8424;DHT22;4249;49.072;9.770;2022-08-25T13:57:32;28.90;1.00
8424;DHT22;4249;49.072;9.770;2022-08-25T14:00:30;29.10;1.00
8424;DHT22;4249;49.072;9.770;2022-08-25T14:03:31;29.20;1.00
8424;DHT22;4249;49.072;9.770;2022-08-25T14:06:20;29.00;1.00
8424;DHT22;4249;49.072;9.770;2022-08-25T14:09:15;29.10;1.00
8424;DHT22;4249;49.072;9.770;2022-08-25T14:12:03;29.20;1.00
8424;DHT22;4249;49.072;9.770;2022-08-25T14:15:03;28.90;1.00
8424;DHT22;4249;49.072;9.770;2022-08-25T14:17:59;28.80;1.00
8424;DHT22;4249;49.072;9.770;2022-08-25T14:20:50;28.50;1.00
8424;DHT22;4249;49.072;9.770;2022-08-25T14:23:38;28.30;1.00
8424;DHT22;4249;49.072;9.770;2022-08-25T14:26:25;28.00;1.00
8424;DHT22;4249;49.072;9.770;2022-08-25T14:29:14;27.90;1.00
8424;DHT22;4249;49.072;9.770;2022-08-25T14:32:03;27.70;1.00
8424;DHT22;4249;49.072;9.770;2022-08-25T14:34:51;27.60;1.00
8424;DHT22;4249;49.072;9.770;2022-08-25T14:37:38;27.60;1.00
8424;DHT22;4249;49.072;9.770;2022-08-25T14:40:25;27.60;1.00
8424;DHT22;4249;49.072;9.770;2022-08-25T14:43:13;27.60;1.00
8424;DHT22;4249;49.072;9.770;2022-08-25T14:49:09;27.50;1.00
8424;DHT22;4249;49.072;9.770;2022-08-25T14:52:00;27.40;1.00
8424;DHT22;4249;49.072;9.770;2022-08-25T14:54:50;27.40;1.00
8424;DHT22;4249;49.072;9.770;2022-08-25T14:57:37;27.30;1.00
8424;DHT22;4249;49.072;9.770;2022-08-25T15:00:25;27.20;1.00
8424;DHT22;4249;49.072;9.770;2022-08-25T15:03:13;27.10;1.00
8424;DHT22;4249;49.072;9.770;2022-08-25T15:06:04;27.10;1.00
8424;DHT22;4249;49.072;9.770;2022-08-25T15:08:51;27.00;1.00
8424;DHT22;4249;49.072;9.770;2022-08-25T15:11:54;27.30;1.00
8424;DHT22;4249;49.072;9.770;2022-08-25T15:14:42;27.50;1.00
8424;DHT22;4249;49.072;9.770;2022-08-25T15:17:29;27.80;1.00
8424;DHT22;4249;49.072;9.770;2022-08-25T15:20:17;28.00;1.00
8424;DHT22;4249;49.072;9.770;2022-08-25T15:23:05;28.10;1.00
8424;DHT22;4249;49.072;9.770;2022-08-25T15:25:54;28.20;1.00
8424;DHT22;4249;49.072;9.770;2022-08-25T15:28:44;28.20;1.00
8424;DHT22;4249;49.072;9.770;2022-08-25T15:31:33;28.20;1.00
8424;DHT22;4249;49.072;9.770;2022-08-25T15:34:20;28.40;1.00
8424;DHT22;4249;49.072;9.770;2022-08-25T15:37:10;28.40;1.00
8424;DHT22;4249;49.072;9.770;2022-08-25T15:40:00;28.30;1.00
8424;DHT22;4249;49.072;9.770;2022-08-25T15:42:48;28.10;1.00
8424;DHT22;4249;49.072;9.770;2022-08-25T15:45:35;28.20;1.00
8424;DHT22;4249;49.072;9.770;2022-08-25T15:48:23;28.40;1.00
8424;DHT22;4249;49.072;9.770;2022-08-25T15:51:10;28.50;1.00
8424;DHT22;4249;49.072;9.770;2022-08-25T15:53:57;28.50;1.00
8424;DHT22;4249;49.072;9.770;2022-08-25T15:56:46;28.60;1.00
8424;DHT22;4249;49.072;9.770;2022-08-25T15:59:33;28.60;1.00
8424;DHT22;4249;49.072;9.770;2022-08-25T16:02:21;28.50;1.00
8424;DHT22;4249;49.072;9.770;2022-08-25T16:05:09;28.50;1.00
8424;DHT22;4249;49.072;9.770;2022-08-25T16:07:56;28.40;1.00
8424;DHT22;4249;49.072;9.770;2022-08-25T16:10:43;28.40;1.00
8424;DHT22;4249;49.072;9.770;2022-08-25T16:13:32;28.60;1.00
8424;DHT22;4249;49.072;9.770;2022-08-25T16:16:21;28.50;1.00
8424;DHT22;4249;49.072;9.770;2022-08-25T16:19:08;28.60;1.00
8424;DHT22;4249;49.072;9.770;2022-08-25T16:21:57;28.50;1.00
8424;DHT22;4249;49.072;9.770;2022-08-25T16:24:45;28.50;1.00
8424;DHT22;4249;49.072;9.770;2022-08-25T16:27:32;28.40;1.00
8424;DHT22;4249;49.072;9.770;2022-08-25T16:30:21;28.20;1.00
8424;DHT22;4249;49.072;9.770;2022-08-25T16:33:08;28.10;1.00
8424;DHT22;4249;49.072;9.770;2022-08-25T16:36:04;28.10;1.00
8424;DHT22;4249;49.072;9.770;2022-08-25T16:38:51;28.00;1.00
8424;DHT22;4249;49.072;9.770;2022-08-25T16:41:38;27.90;1.00
8424;DHT22;4249;49.072;9.770;2022-08-25T16:44:26;27.90;1.00
8424;DHT22;4249;49.072;9.770;2022-08-25T16:47:14;27.80;1.00
8424;DHT22;4249;49.072;9.770;2022-08-25T16:50:02;27.80;1.00
8424;DHT22;4249;49.072;9.770;2022-08-25T16:52:49;27.70;1.00
8424;DHT22;4249;49.072;9.770;2022-08-25T16:55:59;27.60;1.00
8424;DHT22;4249;49.072;9.770;2022-08-25T16:58:47;27.40;1.00
8424;DHT22;4249;49.072;9.770;2022-08-25T17:01:34;27.40;1.00
8424;DHT22;4249;49.072;9.770;2022-08-25T17:04:24;27.40;1.00
8424;DHT22;4249;49.072;9.770;2022-08-25T17:07:12;27.40;1.00
8424;DHT22;4249;49.072;9.770;2022-08-25T17:10:00;27.30;1.00
8424;DHT22;4249;49.072;9.770;2022-08-25T17:12:47;27.20;1.00
8424;DHT22;4249;49.072;9.770;2022-08-25T17:15:39;27.20;1.00
8424;DHT22;4249;49.072;9.770;2022-08-25T17:18:27;27.10;1.00
8424;DHT22;4249;49.072;9.770;2022-08-25T17:21:17;27.00;1.00
8424;DHT22;4249;49.072;9.770;2022-08-25T17:24:06;26.80;1.00
8424;DHT22;4249;49.072;9.770;2022-08-25T17:26:54;26.90;1.00
8424;DHT22;4249;49.072;9.770;2022-08-25T17:29:41;26.90;1.00
8424;DHT22;4249;49.072;9.770;2022-08-25T17:32:28;26.80;1.00
8424;DHT22;4249;49.072;9.770;2022-08-25T17:35:16;26.80;1.00
8424;DHT22;4249;49.072;9.770;2022-08-25T17:38:04;26.80;1.00
8424;DHT22;4249;49.072;9.770;2022-08-25T17:40:52;26.80;1.00
8424;DHT22;4249;49.072;9.770;2022-08-25T17:43:41;26.70;1.00
8424;DHT22;4249;49.072;9.770;2022-08-25T17:46:28;26.60;1.00
8424;DHT22;4249;49.072;9.770;2022-08-25T17:49:16;26.50;1.00
8424;DHT22;4249;49.072;9.770;2022-08-25T17:52:03;26.40;1.00
8424;DHT22;4249;49.072;9.770;2022-08-25T17:54:52;26.20;1.00
8424;DHT22;4249;49.072;9.770;2022-08-25T17:57:39;26.10;1.00
8424;DHT22;4249;49.072;9.770;2022-08-25T18:00:26;25.90;1.00
8424;DHT22;4249;49.072;9.770;2022-08-25T18:03:13;25.80;1.00
8424;DHT22;4249;49.072;9.770;2022-08-25T18:06:01;25.60;1.00
8424;DHT22;4249;49.072;9.770;2022-08-25T18:08:48;25.50;1.00
8424;DHT22;4249;49.072;9.770;2022-08-25T18:11:37;25.40;1.00
8424;DHT22;4249;49.072;9.770;2022-08-25T18:14:24;25.30;1.00
8424;DHT22;4249;49.072;9.770;2022-08-25T18:17:11;25.10;1.00
8424;DHT22;4249;49.072;9.770;2022-08-25T18:19:59;25.00;1.00
8424;DHT22;4249;49.072;9.770;2022-08-25T18:22:46;24.80;1.00
8424;DHT22;4249;49.072;9.770;2022-08-25T18:25:33;24.70;1.00
8424;DHT22;4249;49.072;9.770;2022-08-25T18:28:22;24.60;1.00
8424;DHT22;4249;49.072;9.770;2022-08-25T18:31:09;24.50;1.00
8424;DHT22;4249;49.072;9.770;2022-08-25T18:33:57;24.50;1.00
8424;DHT22;4249;49.072;9.770;2022-08-25T18:36:44;24.40;1.00
8424;DHT22;4249;49.072;9.770;2022-08-25T18:39:31;24.30;1.00